FMSD Airport Information

Runway Information
Runway 08 Length 4916 ft width 98 ft
Elevation 24 ft Threshold 0 ft Heading 53
Runway 26 Length 4916 ft Width 98 ft
Elevation 23 ft Threshold 0 ft Heading 233
Airport Frequencies
Type AFIS Name AFIS Frequency 118.7 MHZ
Airport Navaids
Type NDB Name Tolagnaro Frequency 282 KHZ
Airport Weather Information & NOTAM
ADDS - METARS form results

(1706 UTC 18 August 2019)
Data provider http://aviationweather.gov/metar/data/
 
Forecast for: FMSD (FT. DAUPHIN/TOLA, KM)
Text: TAF FMSD 181700Z 1818/1918 08010KT 9999 SCT017 BKN033
Forecast period: 1800 UTC 18 August 2019 to 1800 UTC 19 August 2019
Forecast type: FROM: standard forecast or significant change
Winds: from the E (80 degrees) at 12 MPH (10 knots; 5.1 m/s)
Visibility: 6 or more miles 10+ km)
Ceiling: 3300 feet AGL
Clouds: scattered clouds at 1700 feet AGL
broken clouds at 3300 feet AGL
Weather: no significant weather forecast for this period
Text: PROB40
Forecast period: 1800 UTC 18 August 2019 to 0800 UTC 19 August 2019
Forecast type: TEMPORARY: The following changes expected for less than half the time period
Visibility: 2.49 miles (4.01 km)
Ceiling: unknown
Clouds: missing
Weather: SHRA  (rain showers)